createdAt,value
2022-08-29T00:00:29.942Z,14.81
2022-08-29T00:01:02.937Z,14.81
2022-08-29T00:01:38.726Z,14.81
2022-08-29T00:02:13.649Z,14.81
2022-08-29T00:02:48.228Z,14.81
2022-08-29T00:03:21.702Z,14.88
2022-08-29T00:03:55.851Z,14.88
2022-08-29T00:04:28.547Z,14.88
2022-08-29T00:05:06.392Z,14.81
2022-08-29T00:05:40.153Z,14.81
2022-08-29T00:06:16.119Z,14.81
2022-08-29T00:06:48.672Z,14.81
2022-08-29T00:07:21.855Z,14.81
2022-08-29T00:07:55.629Z,14.75
2022-08-29T00:08:28.529Z,14.75
2022-08-29T00:09:01.049Z,14.75
2022-08-29T00:09:34.585Z,14.75
2022-08-29T00:10:08.897Z,14.75
2022-08-29T00:10:43.087Z,14.75
2022-08-29T00:11:17.053Z,14.75
2022-08-29T00:11:49.690Z,14.75
2022-08-29T00:12:22.223Z,14.75
2022-08-29T00:12:57.718Z,14.75
2022-08-29T00:13:30.571Z,14.75
2022-08-29T00:14:03.134Z,14.75
2022-08-29T00:14:36.764Z,14.69
2022-08-29T00:15:16.221Z,14.69
2022-08-29T00:15:49.223Z,14.69
2022-08-29T00:16:22.801Z,14.69
2022-08-29T00:16:55.416Z,14.69
2022-08-29T00:17:29.923Z,14.69
2022-08-29T00:18:04.384Z,14.69
2022-08-29T00:18:37.953Z,14.69
2022-08-29T00:19:10.589Z,14.63
2022-08-29T00:19:44.232Z,14.63
2022-08-29T00:20:19.224Z,14.63
2022-08-29T00:20:52.568Z,14.63
2022-08-29T00:21:26.183Z,14.63
2022-08-29T00:21:58.968Z,14.63
2022-08-29T00:22:31.458Z,14.63
2022-08-29T00:23:06.531Z,14.63
2022-08-29T00:23:39.497Z,14.63
2022-08-29T00:24:12.065Z,14.63
2022-08-29T00:24:44.631Z,14.63
2022-08-29T00:25:18.413Z,14.63
2022-08-29T00:25:50.999Z,14.63
2022-08-29T00:26:23.530Z,14.63
2022-08-29T00:27:00.352Z,14.63
2022-08-29T00:27:34.615Z,14.63
2022-08-29T00:28:07.241Z,14.63
2022-08-29T00:28:40.887Z,14.63
2022-08-29T00:29:13.557Z,14.63
2022-08-29T00:29:46.140Z,14.69
2022-08-29T00:30:21.790Z,14.69
2022-08-29T00:30:54.330Z,14.69
2022-08-29T00:31:26.873Z,14.69
2022-08-29T00:32:00.597Z,14.69
2022-08-29T00:32:36.242Z,14.69
2022-08-29T00:33:09.261Z,14.69
2022-08-29T00:33:42.920Z,14.75
2022-08-29T00:34:15.402Z,14.75
2022-08-29T00:34:47.935Z,14.75
2022-08-29T00:35:23.987Z,14.75
2022-08-29T00:35:56.886Z,14.75
2022-08-29T00:36:30.621Z,14.75
2022-08-29T00:37:04.773Z,14.75
2022-08-29T00:37:38.270Z,14.75
2022-08-29T00:38:14.250Z,14.75
2022-08-29T00:38:47.735Z,14.81
2022-08-29T00:39:23.745Z,14.81
2022-08-29T00:39:57.467Z,14.81
2022-08-29T00:40:34.700Z,14.81
2022-08-29T00:41:07.386Z,14.81
2022-08-29T00:41:40.909Z,14.88
2022-08-29T00:42:13.410Z,14.88
2022-08-29T00:42:46.247Z,14.88
2022-08-29T00:43:21.190Z,14.88
2022-08-29T00:43:54.684Z,14.94
2022-08-29T00:44:27.287Z,14.94
2022-08-29T00:44:59.823Z,14.94
2022-08-29T00:45:33.186Z,14.94
2022-08-29T00:46:38.726Z,15.00
2022-08-29T00:47:15.946Z,15.06
2022-08-29T00:47:55.569Z,15.06
2022-08-29T00:48:28.901Z,15.13
2022-08-29T00:49:04.983Z,15.13
2022-08-29T00:49:42.352Z,15.19
2022-08-29T00:50:22.645Z,15.19
2022-08-29T00:50:59.263Z,15.25
2022-08-29T00:51:33.527Z,15.25
2022-08-29T00:52:09.277Z,15.31
2022-08-29T00:52:46.693Z,15.31
2022-08-29T00:53:27.991Z,15.38
2022-08-29T00:54:04.378Z,15.38
2022-08-29T00:54:38.943Z,15.38
2022-08-29T00:55:15.552Z,15.38
2022-08-29T00:55:50.393Z,15.44
2022-08-29T00:56:24.175Z,15.44
2022-08-29T00:56:59.045Z,15.44
2022-08-29T00:57:33.587Z,15.44
2022-08-29T00:58:09.742Z,15.44
2022-08-29T00:58:51.961Z,15.50
2022-08-29T00:59:29.547Z,15.50
2022-08-29T01:00:05.514Z,15.50
2022-08-29T01:00:38.837Z,15.50
2022-08-29T01:01:11.629Z,15.50
2022-08-29T01:01:46.115Z,15.50
2022-08-29T01:02:19.656Z,15.50
2022-08-29T01:02:54.401Z,15.50
2022-08-29T01:03:28.676Z,15.50
2022-08-29T01:04:01.265Z,15.50
2022-08-29T01:04:34.659Z,15.56
2022-08-29T01:05:10.480Z,15.56
2022-08-29T01:05:43.103Z,15.56
2022-08-29T01:06:15.943Z,15.56
2022-08-29T01:06:49.564Z,15.56
2022-08-29T01:07:22.143Z,15.56
2022-08-29T01:07:54.686Z,15.56
2022-08-29T01:08:28.235Z,15.56
2022-08-29T01:09:00.827Z,15.56
2022-08-29T01:09:35.599Z,15.56
2022-08-29T01:10:13.325Z,15.56
2022-08-29T01:11:04.899Z,15.63
2022-08-29T01:11:56.416Z,15.63
2022-08-29T01:12:29.062Z,15.63
2022-08-29T01:13:03.441Z,15.63
2022-08-29T01:13:45.144Z,15.63
2022-08-29T01:14:20.343Z,15.63
2022-08-29T01:14:55.835Z,15.63
2022-08-29T01:15:30.585Z,15.63
2022-08-29T01:16:05.689Z,15.63
2022-08-29T01:16:38.848Z,15.63
2022-08-29T01:17:11.579Z,15.63
2022-08-29T01:17:48.269Z,15.63
2022-08-29T01:18:23.239Z,15.63
2022-08-29T01:18:59.297Z,15.63
2022-08-29T01:19:43.267Z,15.63
2022-08-29T01:20:35.258Z,15.63
2022-08-29T01:21:16.414Z,15.63
2022-08-29T01:21:56.665Z,15.63
2022-08-29T01:22:41.635Z,15.63
2022-08-29T01:23:21.599Z,15.63
2022-08-29T01:24:01.251Z,15.63
2022-08-29T01:24:41.271Z,15.63
2022-08-29T01:25:18.001Z,15.63
2022-08-29T01:25:52.161Z,15.63
2022-08-29T01:26:28.463Z,15.63
2022-08-29T01:27:01.123Z,15.63
2022-08-29T01:27:39.383Z,15.63
2022-08-29T01:28:16.211Z,15.63
2022-08-29T01:28:53.844Z,15.63
2022-08-29T01:29:26.376Z,15.63
2022-08-29T01:29:59.153Z,15.63
2022-08-29T01:30:33.512Z,15.63
2022-08-29T01:31:09.383Z,15.69
2022-08-29T01:31:57.044Z,15.69
2022-08-29T01:32:31.275Z,15.69
2022-08-29T01:33:04.964Z,15.69
2022-08-29T01:33:42.996Z,15.69
2022-08-29T01:34:17.054Z,15.69
2022-08-29T01:34:50.553Z,15.69
2022-08-29T01:35:23.443Z,15.69
2022-08-29T01:35:55.929Z,15.69
2022-08-29T01:36:35.328Z,15.69
2022-08-29T01:37:11.429Z,15.69
2022-08-29T01:37:45.165Z,15.69
2022-08-29T01:38:27.613Z,15.69
2022-08-29T01:39:00.785Z,15.69
2022-08-29T01:39:36.066Z,15.69
2022-08-29T01:40:11.632Z,15.69
2022-08-29T01:40:44.158Z,15.69
2022-08-29T01:41:19.088Z,15.69
2022-08-29T01:41:51.790Z,15.69
2022-08-29T01:42:25.153Z,15.69
2022-08-29T01:42:58.722Z,15.69
2022-08-29T01:43:37.686Z,15.69
2022-08-29T01:44:12.506Z,15.69
2022-08-29T01:44:50.442Z,15.69
2022-08-29T01:45:24.864Z,15.69
2022-08-29T01:45:57.839Z,15.69
2022-08-29T01:46:34.646Z,15.69
2022-08-29T01:47:11.302Z,15.69
2022-08-29T01:47:43.880Z,15.69
2022-08-29T01:48:16.721Z,15.69
2022-08-29T01:48:50.615Z,15.69
2022-08-29T01:49:23.687Z,15.69
2022-08-29T01:49:56.331Z,15.69
2022-08-29T01:50:30.322Z,15.69
2022-08-29T01:51:03.013Z,15.69
2022-08-29T01:51:36.052Z,15.69
2022-08-29T01:52:10.089Z,15.69
2022-08-29T01:52:43.038Z,15.75
2022-08-29T01:53:16.514Z,15.69
2022-08-29T01:53:50.118Z,15.75
2022-08-29T01:54:22.695Z,15.75
2022-08-29T01:54:56.300Z,15.75
2022-08-29T01:55:31.162Z,15.69
2022-08-29T01:56:10.303Z,15.75
2022-08-29T01:56:47.362Z,15.69
2022-08-29T01:57:21.844Z,15.75
2022-08-29T01:57:54.333Z,15.75
2022-08-29T01:58:28.480Z,15.75
2022-08-29T01:59:04.643Z,15.69
2022-08-29T01:59:38.258Z,15.69
2022-08-29T02:00:11.736Z,15.75
2022-08-29T02:01:36.194Z,15.69
2022-08-29T02:02:12.851Z,15.69
2022-08-29T02:02:46.570Z,15.69
2022-08-29T02:03:19.148Z,15.69
2022-08-29T02:03:51.745Z,15.69
2022-08-29T02:04:24.496Z,15.69
2022-08-29T02:04:58.728Z,15.69
2022-08-29T02:05:31.942Z,15.69
2022-08-29T02:06:05.693Z,15.69
2022-08-29T02:06:40.227Z,15.69
2022-08-29T02:07:13.791Z,15.75
2022-08-29T02:07:47.302Z,15.69
2022-08-29T02:08:20.374Z,15.69
2022-08-29T02:08:52.996Z,15.75
2022-08-29T02:09:27.692Z,15.69
2022-08-29T02:10:00.198Z,15.69
2022-08-29T02:10:34.243Z,15.69
2022-08-29T02:11:10.187Z,15.69
2022-08-29T02:11:46.455Z,15.69
2022-08-29T02:12:20.528Z,15.69
2022-08-29T02:12:54.638Z,15.69
2022-08-29T02:13:27.340Z,15.69
2022-08-29T02:14:01.551Z,15.69
2022-08-29T02:14:35.590Z,15.69
2022-08-29T02:15:08.633Z,15.69
2022-08-29T02:15:41.144Z,15.69
2022-08-29T02:16:15.321Z,15.69
2022-08-29T02:16:48.310Z,15.69
2022-08-29T02:17:21.084Z,15.69
2022-08-29T02:17:54.534Z,15.69
2022-08-29T02:18:27.126Z,15.63
2022-08-29T02:18:59.975Z,15.63
2022-08-29T02:19:32.819Z,15.63
2022-08-29T02:20:09.153Z,15.63
2022-08-29T02:20:41.691Z,15.63
2022-08-29T02:21:16.065Z,15.63
2022-08-29T02:21:50.160Z,15.63
2022-08-29T02:22:22.888Z,15.63
2022-08-29T02:22:55.425Z,15.63
2022-08-29T02:23:31.264Z,15.63
2022-08-29T02:24:23.974Z,15.56
2022-08-29T02:24:58.240Z,15.56
2022-08-29T02:25:42.709Z,15.56
2022-08-29T02:26:17.059Z,15.56
2022-08-29T02:26:50.918Z,15.56
2022-08-29T02:27:23.458Z,15.56
2022-08-29T02:27:57.702Z,15.56
2022-08-29T02:28:31.602Z,15.56
2022-08-29T02:29:04.254Z,15.56
2022-08-29T02:29:38.476Z,15.56
2022-08-29T02:30:14.526Z,15.56
2022-08-29T02:30:50.017Z,15.56
2022-08-29T02:31:29.965Z,15.56
2022-08-29T02:32:04.399Z,15.56
2022-08-29T02:32:37.616Z,15.56
2022-08-29T02:33:11.514Z,15.56
2022-08-29T02:33:45.950Z,15.56
2022-08-29T02:34:18.946Z,15.56
2022-08-29T02:34:52.428Z,15.56
2022-08-29T02:35:25.936Z,15.56
2022-08-29T02:36:01.176Z,15.56
2022-08-29T02:36:35.082Z,15.56
2022-08-29T02:37:07.627Z,15.56
2022-08-29T02:37:40.168Z,15.56
2022-08-29T02:38:14.320Z,15.56
2022-08-29T02:38:47.251Z,15.56
2022-08-29T02:39:20.857Z,15.56
2022-08-29T02:39:53.684Z,15.56
2022-08-29T02:40:31.707Z,15.56
2022-08-29T02:41:04.918Z,15.50
2022-08-29T02:41:39.844Z,15.50
2022-08-29T02:42:17.030Z,15.50
2022-08-29T02:42:49.548Z,15.50
2022-08-29T02:43:24.259Z,15.50
2022-08-29T02:43:56.818Z,15.50
2022-08-29T02:44:29.531Z,15.50
2022-08-29T02:45:02.010Z,15.50
2022-08-29T02:45:38.886Z,15.56
2022-08-29T02:46:16.552Z,15.56
2022-08-29T02:46:50.695Z,15.56
2022-08-29T02:47:23.313Z,15.50
2022-08-29T02:47:55.854Z,15.56
2022-08-29T02:48:29.599Z,15.50
2022-08-29T02:49:02.225Z,15.50
2022-08-29T02:49:34.683Z,15.50
2022-08-29T02:50:11.892Z,15.50
2022-08-29T02:50:46.814Z,15.50
2022-08-29T02:51:20.714Z,15.50
2022-08-29T02:51:54.271Z,15.50
2022-08-29T02:52:26.842Z,15.50
2022-08-29T02:52:59.611Z,15.50
2022-08-29T02:53:33.180Z,15.50
2022-08-29T02:54:05.910Z,15.50
2022-08-29T02:54:39.410Z,15.50
2022-08-29T02:55:15.357Z,15.50
2022-08-29T02:55:48.742Z,15.50
2022-08-29T02:56:22.763Z,15.50
2022-08-29T02:56:56.616Z,15.50
2022-08-29T02:57:29.280Z,15.50
2022-08-29T02:58:02.976Z,15.50
2022-08-29T02:58:35.634Z,15.50
2022-08-29T02:59:08.538Z,15.50
2022-08-29T02:59:42.130Z,15.56
2022-08-29T03:00:18.651Z,15.56
2022-08-29T03:00:51.381Z,15.56
2022-08-29T03:01:27.091Z,15.56
2022-08-29T03:01:59.829Z,15.56
2022-08-29T03:02:32.400Z,15.56
2022-08-29T03:03:05.355Z,15.63
2022-08-29T03:03:39.012Z,15.63
2022-08-29T03:04:11.544Z,15.63
2022-08-29T03:04:44.046Z,15.63
2022-08-29T03:05:18.722Z,15.63
2022-08-29T03:05:51.231Z,15.63
2022-08-29T03:06:24.900Z,15.63
2022-08-29T03:06:57.679Z,15.63
2022-08-29T03:07:30.126Z,15.63
2022-08-29T03:08:06.273Z,15.63
2022-08-29T03:08:39.317Z,15.63
2022-08-29T03:09:12.082Z,15.63
2022-08-29T03:09:45.562Z,15.63
2022-08-29T03:10:20.146Z,15.63
2022-08-29T03:10:52.696Z,15.63
2022-08-29T03:11:27.088Z,15.63
2022-08-29T03:12:00.922Z,15.63
2022-08-29T03:12:33.446Z,15.63
2022-08-29T03:13:07.304Z,15.63
2022-08-29T03:13:40.165Z,15.63
2022-08-29T03:14:12.785Z,15.63
2022-08-29T03:14:49.510Z,15.63
2022-08-29T03:15:22.913Z,15.63
2022-08-29T03:15:55.616Z,15.63
2022-08-29T03:16:29.361Z,15.63
2022-08-29T03:17:01.975Z,15.63
2022-08-29T03:17:35.259Z,15.63
2022-08-29T03:18:09.036Z,15.63
2022-08-29T03:18:41.629Z,15.63
2022-08-29T03:19:14.166Z,15.63
2022-08-29T03:19:47.641Z,15.63
2022-08-29T03:20:21.620Z,15.63
2022-08-29T03:20:54.113Z,15.63
2022-08-29T03:21:28.516Z,15.63
2022-08-29T03:22:01.017Z,15.63
2022-08-29T03:22:34.657Z,15.63
2022-08-29T03:23:08.900Z,15.63
2022-08-29T03:23:41.436Z,15.63
2022-08-29T03:24:13.943Z,15.63
2022-08-29T03:24:47.617Z,15.63
2022-08-29T03:25:21.315Z,15.63
2022-08-29T03:25:54.422Z,15.56
2022-08-29T03:26:28.016Z,15.56
2022-08-29T03:27:01.939Z,15.56
2022-08-29T03:27:34.693Z,15.56
2022-08-29T03:28:08.596Z,15.56
2022-08-29T03:28:41.238Z,15.56
2022-08-29T03:29:13.740Z,15.56
2022-08-29T03:29:47.626Z,15.56
2022-08-29T03:30:21.432Z,15.56
2022-08-29T03:30:56.549Z,15.56
2022-08-29T03:31:30.380Z,15.56
2022-08-29T03:32:03.302Z,15.56
2022-08-29T03:32:36.231Z,15.56
2022-08-29T03:33:11.761Z,15.56
2022-08-29T03:33:44.754Z,15.56
2022-08-29T03:34:17.735Z,15.56
2022-08-29T03:34:51.234Z,15.56
2022-08-29T03:35:24.768Z,15.56
2022-08-29T03:35:57.291Z,15.56
2022-08-29T03:36:32.052Z,15.56
2022-08-29T03:37:04.698Z,15.56
2022-08-29T03:37:37.450Z,15.56
2022-08-29T03:38:10.997Z,15.56
2022-08-29T03:38:43.863Z,15.56
2022-08-29T03:39:16.381Z,15.50
2022-08-29T03:39:49.854Z,15.50
2022-08-29T03:40:23.056Z,15.50
2022-08-29T03:40:55.663Z,15.50
2022-08-29T03:41:31.979Z,15.50
2022-08-29T03:42:06.829Z,15.50
2022-08-29T03:42:39.662Z,15.50
2022-08-29T03:43:13.183Z,15.50
2022-08-29T03:43:45.729Z,15.50
2022-08-29T03:44:18.312Z,15.50
2022-08-29T03:44:51.850Z,15.50
2022-08-29T03:45:25.538Z,15.50
2022-08-29T03:45:59.006Z,15.50
2022-08-29T03:46:33.166Z,15.50
2022-08-29T03:47:06.435Z,15.44
2022-08-29T03:47:39.969Z,15.44
2022-08-29T03:48:12.540Z,15.44
2022-08-29T03:48:45.277Z,15.44
2022-08-29T03:49:18.957Z,15.44
2022-08-29T03:49:51.473Z,15.44
2022-08-29T03:50:25.168Z,15.44
2022-08-29T03:50:57.902Z,15.44
2022-08-29T03:51:31.630Z,15.44
2022-08-29T03:52:05.985Z,15.44
2022-08-29T03:52:39.646Z,15.44
2022-08-29T03:53:12.238Z,15.44
2022-08-29T03:53:46.222Z,15.38
2022-08-29T03:54:19.273Z,15.38
2022-08-29T03:54:52.272Z,15.44
2022-08-29T03:55:26.125Z,15.38
2022-08-29T03:55:58.622Z,15.38
2022-08-29T03:56:31.135Z,15.38
2022-08-29T03:57:07.849Z,15.38
2022-08-29T03:57:41.094Z,15.38
2022-08-29T03:58:13.752Z,15.38
2022-08-29T03:58:52.664Z,15.38
2022-08-29T03:59:25.933Z,15.38
2022-08-29T03:59:58.455Z,15.38
2022-08-29T04:00:32.497Z,15.38
2022-08-29T04:01:05.409Z,15.38
2022-08-29T04:01:38.405Z,15.38
2022-08-29T04:02:12.007Z,15.38
2022-08-29T04:02:46.591Z,15.31
2022-08-29T04:03:20.376Z,15.31
2022-08-29T04:03:58.712Z,15.31
2022-08-29T04:04:49.625Z,15.31
2022-08-29T04:05:22.320Z,15.31
2022-08-29T04:05:56.054Z,15.31
2022-08-29T04:06:29.146Z,15.31
2022-08-29T04:07:02.187Z,15.31
2022-08-29T04:07:42.698Z,15.38
2022-08-29T04:08:16.300Z,15.38
2022-08-29T04:08:49.150Z,15.38
2022-08-29T04:09:21.640Z,15.38
2022-08-29T04:09:54.263Z,15.31
2022-08-29T04:10:30.976Z,15.31
2022-08-29T04:11:09.659Z,15.31
2022-08-29T04:11:42.117Z,15.31
2022-08-29T04:12:17.252Z,15.31
2022-08-29T04:12:54.262Z,15.31
2022-08-29T04:13:28.365Z,15.31
2022-08-29T04:14:02.200Z,15.31
2022-08-29T04:14:35.969Z,15.31
2022-08-29T04:15:10.376Z,15.31
2022-08-29T04:15:43.514Z,15.25
2022-08-29T04:16:19.661Z,15.25
2022-08-29T04:16:52.276Z,15.25
2022-08-29T04:17:24.790Z,15.25
2022-08-29T04:18:01.606Z,15.25
2022-08-29T04:18:34.303Z,15.25
2022-08-29T04:19:06.815Z,15.25
2022-08-29T04:19:41.611Z,15.25
2022-08-29T04:20:15.900Z,15.19
2022-08-29T04:20:48.397Z,15.19
2022-08-29T04:21:20.940Z,15.19
2022-08-29T04:21:53.428Z,15.19
2022-08-29T04:22:26.980Z,15.19
2022-08-29T04:23:00.599Z,15.19
2022-08-29T04:23:35.216Z,15.13
2022-08-29T04:24:08.812Z,15.13
2022-08-29T04:24:41.778Z,15.13
2022-08-29T04:25:15.596Z,15.13
2022-08-29T04:25:49.023Z,15.13
2022-08-29T04:26:37.807Z,15.13
2022-08-29T04:27:10.510Z,15.13
2022-08-29T04:27:45.486Z,15.13
2022-08-29T04:28:18.016Z,15.06
2022-08-29T04:28:50.647Z,15.06
2022-08-29T04:29:24.165Z,15.06
2022-08-29T04:29:56.692Z,15.06
2022-08-29T04:30:30.449Z,15.06
2022-08-29T04:31:03.071Z,15.06
2022-08-29T04:31:36.456Z,15.06
2022-08-29T04:32:10.154Z,15.06
2022-08-29T04:32:42.867Z,15.06
2022-08-29T04:33:22.779Z,15.06
2022-08-29T04:33:55.509Z,15.06
2022-08-29T04:34:28.092Z,15.00
2022-08-29T04:35:01.591Z,15.00
2022-08-29T04:35:35.631Z,15.00
2022-08-29T04:36:11.942Z,15.00
2022-08-29T04:36:48.623Z,15.00
2022-08-29T04:37:21.374Z,15.00
2022-08-29T04:37:54.057Z,15.00
2022-08-29T04:38:27.605Z,15.00
2022-08-29T04:39:00.147Z,15.00
2022-08-29T04:39:34.033Z,14.94
2022-08-29T04:40:08.913Z,14.94
2022-08-29T04:40:42.551Z,14.94
2022-08-29T04:41:15.119Z,14.94
2022-08-29T04:41:48.565Z,15.00
2022-08-29T04:42:21.701Z,15.00
2022-08-29T04:42:55.534Z,15.00
2022-08-29T04:43:29.039Z,15.00
2022-08-29T04:44:02.279Z,15.00
2022-08-29T04:44:35.036Z,15.06
2022-08-29T04:45:12.142Z,15.06
2022-08-29T04:45:44.739Z,15.06
2022-08-29T04:46:24.057Z,15.06
2022-08-29T04:46:58.161Z,15.06
2022-08-29T04:47:31.049Z,15.06
2022-08-29T04:48:04.369Z,15.13
2022-08-29T04:48:38.005Z,15.13
2022-08-29T04:49:10.545Z,15.13
2022-08-29T04:49:43.342Z,15.13
2022-08-29T04:50:20.649Z,15.13
2022-08-29T04:50:56.385Z,15.13
2022-08-29T04:51:29.785Z,15.13
2022-08-29T04:52:03.653Z,15.13
2022-08-29T04:52:37.001Z,15.13
2022-08-29T04:53:09.518Z,15.13
2022-08-29T04:53:43.011Z,15.13
2022-08-29T04:54:15.618Z,15.13
2022-08-29T04:54:48.272Z,15.13
2022-08-29T04:55:25.751Z,15.13
2022-08-29T04:56:00.370Z,15.13
2022-08-29T04:56:33.315Z,15.13
2022-08-29T04:57:08.763Z,15.13
2022-08-29T04:57:43.766Z,15.13
2022-08-29T04:58:19.191Z,15.13
2022-08-29T04:58:52.702Z,15.13
2022-08-29T04:59:25.882Z,15.13
2022-08-29T05:00:00.021Z,15.13
2022-08-29T05:00:33.965Z,15.13
2022-08-29T05:01:07.058Z,15.13
2022-08-29T05:01:39.564Z,15.13
2022-08-29T05:02:16.175Z,15.13
2022-08-29T05:02:49.083Z,15.13
2022-08-29T05:03:23.531Z,15.13
2022-08-29T05:03:56.587Z,15.13
2022-08-29T05:04:30.085Z,15.13
2022-08-29T05:05:03.640Z,15.13
2022-08-29T05:05:36.601Z,15.13
2022-08-29T05:06:11.976Z,15.13
2022-08-29T05:06:45.531Z,15.13
2022-08-29T05:07:20.926Z,15.13
2022-08-29T05:07:53.915Z,15.13
2022-08-29T05:08:28.112Z,15.13
2022-08-29T05:09:00.649Z,15.13
2022-08-29T05:09:35.085Z,15.13
2022-08-29T05:10:10.871Z,15.13
2022-08-29T05:10:47.683Z,15.13
2022-08-29T05:11:22.884Z,15.13
2022-08-29T05:11:55.640Z,15.13
2022-08-29T05:12:30.106Z,15.13
2022-08-29T05:13:03.691Z,15.13
2022-08-29T05:13:37.715Z,15.13
2022-08-29T05:14:10.626Z,15.13
2022-08-29T05:14:44.038Z,15.13
2022-08-29T05:15:16.993Z,15.13
2022-08-29T05:15:51.263Z,15.13
2022-08-29T05:16:24.136Z,15.19
2022-08-29T05:16:57.870Z,15.19
2022-08-29T05:17:30.390Z,15.13
2022-08-29T05:18:02.856Z,15.19
2022-08-29T05:18:36.857Z,15.13
2022-08-29T05:19:09.725Z,15.19
2022-08-29T05:19:45.302Z,15.19
2022-08-29T05:20:18.048Z,15.19
2022-08-29T05:20:50.719Z,15.19
2022-08-29T05:21:27.167Z,15.19
2022-08-29T05:21:59.777Z,15.19
2022-08-29T05:22:32.649Z,15.19
2022-08-29T05:23:06.078Z,15.19
2022-08-29T05:23:38.737Z,15.19
2022-08-29T05:24:12.495Z,15.19
2022-08-29T05:24:46.249Z,15.19
2022-08-29T05:25:18.958Z,15.19
2022-08-29T05:25:56.291Z,15.25
2022-08-29T05:26:32.934Z,15.19
2022-08-29T05:27:09.261Z,15.25
2022-08-29T05:27:42.133Z,15.25
2022-08-29T05:28:15.803Z,15.25
2022-08-29T05:28:49.995Z,15.25
2022-08-29T05:29:23.501Z,15.25
2022-08-29T05:29:56.018Z,15.25
2022-08-29T05:30:34.596Z,15.25
2022-08-29T05:31:13.679Z,15.25
2022-08-29T05:31:48.140Z,15.25
2022-08-29T05:32:21.950Z,15.25
2022-08-29T05:32:54.955Z,15.25
2022-08-29T05:33:27.931Z,15.25
2022-08-29T05:34:01.508Z,15.25
2022-08-29T05:34:49.644Z,15.31
2022-08-29T05:35:23.230Z,15.31
2022-08-29T05:35:56.286Z,15.31
2022-08-29T05:36:28.835Z,15.31
2022-08-29T05:37:02.977Z,15.31
2022-08-29T05:37:35.603Z,15.31
2022-08-29T05:38:09.501Z,15.31
2022-08-29T05:38:43.234Z,15.31
2022-08-29T05:39:15.779Z,15.31
2022-08-29T05:39:50.228Z,15.38
2022-08-29T05:40:22.874Z,15.38
2022-08-29T05:40:55.418Z,15.38
2022-08-29T05:41:29.113Z,15.38
2022-08-29T05:42:02.461Z,15.38
2022-08-29T05:42:34.954Z,15.38
2022-08-29T05:43:10.197Z,15.38
2022-08-29T05:43:42.751Z,15.38
2022-08-29T05:44:16.741Z,15.38
2022-08-29T05:44:51.044Z,15.38
2022-08-29T05:45:23.621Z,15.38
2022-08-29T05:46:02.365Z,15.38
2022-08-29T05:46:36.020Z,15.44
2022-08-29T05:47:10.945Z,15.44
2022-08-29T05:47:43.441Z,15.44
2022-08-29T05:48:18.373Z,15.50
2022-08-29T05:48:50.997Z,15.50
2022-08-29T05:49:25.297Z,15.50
2022-08-29T05:49:58.147Z,15.50
2022-08-29T05:50:31.642Z,15.56
2022-08-29T05:51:04.665Z,15.56
2022-08-29T05:51:39.832Z,15.56
2022-08-29T05:52:15.521Z,15.56
2022-08-29T05:52:48.165Z,15.63
2022-08-29T05:53:20.708Z,15.63
2022-08-29T05:53:54.211Z,15.63
2022-08-29T05:54:29.964Z,15.69
2022-08-29T05:55:03.413Z,15.69
2022-08-29T05:55:40.936Z,15.69
2022-08-29T05:56:20.213Z,15.69
2022-08-29T05:56:54.109Z,15.75
2022-08-29T05:57:27.528Z,15.75
2022-08-29T05:58:00.579Z,15.75
2022-08-29T05:58:34.215Z,15.75
2022-08-29T05:59:07.135Z,15.81
2022-08-29T05:59:41.247Z,15.81
2022-08-29T06:00:15.421Z,15.81
2022-08-29T06:00:48.837Z,15.81
2022-08-29T06:01:25.717Z,15.88
2022-08-29T06:01:58.730Z,15.88
2022-08-29T06:02:31.337Z,15.88
2022-08-29T06:03:05.100Z,15.88
2022-08-29T06:03:37.803Z,15.94
2022-08-29T06:04:10.633Z,15.94
2022-08-29T06:04:44.189Z,15.94
2022-08-29T06:05:16.753Z,16.00
2022-08-29T06:05:51.729Z,16.00
2022-08-29T06:06:27.544Z,16.00
2022-08-29T06:07:00.181Z,16.00
2022-08-29T06:07:33.168Z,16.06
2022-08-29T06:08:07.216Z,16.06
2022-08-29T06:08:39.705Z,16.06
2022-08-29T06:09:12.710Z,16.06
2022-08-29T06:09:46.821Z,16.06
2022-08-29T06:10:19.595Z,16.13
2022-08-29T06:10:52.091Z,16.13
2022-08-29T06:11:28.624Z,16.13
2022-08-29T06:12:01.141Z,16.13
2022-08-29T06:12:34.277Z,16.13
2022-08-29T06:13:07.758Z,16.19
2022-08-29T06:13:40.236Z,16.19
2022-08-29T06:14:14.218Z,16.19
2022-08-29T06:14:50.655Z,16.25
2022-08-29T06:15:23.628Z,16.25
2022-08-29T06:15:56.172Z,16.25
2022-08-29T06:16:31.202Z,16.31
2022-08-29T06:17:05.492Z,16.31
2022-08-29T06:17:40.659Z,16.31
2022-08-29T06:18:14.829Z,16.38
2022-08-29T06:18:48.450Z,16.38
2022-08-29T06:19:21.105Z,16.38
2022-08-29T06:19:55.775Z,16.44
2022-08-29T06:20:28.479Z,16.44
2022-08-29T06:21:04.636Z,16.44
2022-08-29T06:21:38.106Z,16.44
2022-08-29T06:22:11.358Z,16.44
2022-08-29T06:22:44.893Z,16.50
2022-08-29T06:23:17.484Z,16.50
2022-08-29T06:23:51.505Z,16.50
2022-08-29T06:24:24.973Z,16.50
2022-08-29T06:24:58.454Z,16.56
2022-08-29T06:25:39.876Z,16.56
2022-08-29T06:26:15.831Z,16.56
2022-08-29T06:26:48.359Z,16.56
2022-08-29T06:27:20.952Z,16.63
2022-08-29T06:27:55.510Z,16.63
2022-08-29T06:28:28.329Z,16.63
2022-08-29T06:29:03.540Z,16.63
2022-08-29T06:29:42.908Z,16.69
2022-08-29T06:30:19.742Z,16.63
2022-08-29T06:30:53.395Z,16.69
2022-08-29T06:31:29.434Z,16.69
2022-08-29T06:32:02.161Z,16.69
2022-08-29T06:32:35.833Z,16.69
2022-08-29T06:33:08.433Z,16.69
2022-08-29T06:33:41.447Z,16.69
2022-08-29T06:34:14.965Z,16.69
2022-08-29T06:34:47.528Z,16.69
2022-08-29T06:35:20.010Z,16.75
2022-08-29T06:35:54.664Z,16.75
2022-08-29T06:36:28.887Z,16.75
2022-08-29T06:37:02.565Z,16.75
2022-08-29T06:37:35.128Z,16.75
2022-08-29T06:38:10.837Z,16.75
2022-08-29T06:38:47.755Z,16.75
2022-08-29T06:39:20.831Z,16.75
2022-08-29T06:39:53.321Z,16.81
2022-08-29T06:40:27.374Z,16.75
2022-08-29T06:41:03.128Z,16.75
2022-08-29T06:41:38.139Z,16.75
2022-08-29T06:42:11.865Z,16.81
2022-08-29T06:42:46.897Z,16.81
2022-08-29T06:43:19.423Z,16.81
2022-08-29T06:43:53.170Z,16.81
2022-08-29T06:44:26.654Z,16.81
2022-08-29T06:45:04.836Z,16.81
2022-08-29T06:45:42.505Z,16.81
2022-08-29T06:46:22.479Z,16.81
2022-08-29T06:46:55.954Z,16.81
2022-08-29T06:47:28.464Z,16.75
2022-08-29T06:48:00.942Z,16.81
2022-08-29T06:48:34.531Z,16.81
2022-08-29T06:49:08.997Z,16.81
2022-08-29T06:49:42.526Z,16.81
2022-08-29T06:50:15.207Z,16.75
2022-08-29T06:50:47.950Z,16.81
2022-08-29T06:51:22.015Z,16.75
2022-08-29T06:51:58.073Z,16.75
2022-08-29T06:52:31.972Z,16.75
2022-08-29T06:53:26.446Z,16.75
2022-08-29T06:53:58.056Z,16.75
2022-08-29T06:54:30.576Z,16.75
2022-08-29T06:55:03.249Z,16.75
2022-08-29T06:55:37.160Z,16.75
2022-08-29T06:56:14.697Z,16.75
2022-08-29T06:56:47.937Z,16.75
2022-08-29T06:57:21.444Z,16.75
2022-08-29T06:57:54.011Z,16.75
2022-08-29T06:58:26.624Z,16.75
2022-08-29T06:59:00.325Z,16.75
2022-08-29T06:59:32.899Z,16.75
2022-08-29T07:00:20.277Z,16.75
2022-08-29T07:00:57.640Z,16.75
2022-08-29T07:01:30.224Z,16.75
2022-08-29T07:02:03.646Z,16.69
2022-08-29T07:02:37.223Z,16.75
2022-08-29T07:03:10.594Z,16.75
2022-08-29T07:03:43.231Z,16.69
2022-08-29T07:04:20.532Z,16.69
2022-08-29T07:04:53.454Z,16.69
2022-08-29T07:05:26.074Z,16.69
2022-08-29T07:05:59.645Z,16.69
2022-08-29T07:06:32.837Z,16.69
2022-08-29T07:07:06.398Z,16.69
2022-08-29T07:07:40.980Z,16.69
2022-08-29T07:08:13.469Z,16.69
2022-08-29T07:08:55.713Z,16.69
2022-08-29T07:09:31.052Z,16.69
2022-08-29T07:10:04.806Z,16.69
2022-08-29T07:10:37.389Z,16.69
2022-08-29T07:11:10.501Z,16.69
2022-08-29T07:11:44.346Z,16.69
2022-08-29T07:12:16.877Z,16.69
2022-08-29T07:12:50.375Z,16.69
2022-08-29T07:13:22.916Z,16.75
2022-08-29T07:13:58.049Z,16.75
2022-08-29T07:14:31.567Z,16.75
2022-08-29T07:15:04.357Z,16.75
2022-08-29T07:15:36.939Z,16.75
2022-08-29T07:16:14.865Z,16.75
2022-08-29T07:16:47.480Z,16.75
2022-08-29T07:17:25.880Z,16.75
2022-08-29T07:18:00.204Z,16.75
2022-08-29T07:18:32.739Z,16.81
2022-08-29T07:19:07.608Z,16.81
2022-08-29T07:19:41.194Z,16.81
2022-08-29T07:20:14.636Z,16.81
2022-08-29T07:20:48.412Z,16.81
2022-08-29T07:21:23.884Z,16.81
2022-08-29T07:22:00.195Z,16.88
2022-08-29T07:22:35.305Z,16.88
2022-08-29T07:23:08.033Z,16.88
2022-08-29T07:23:42.382Z,16.94